Time,TemperatureF,DewpointF,PressureIn,WindDirection,WindDirectionDegrees,WindSpeedMPH,WindSpeedGustMPH,Humidity,HourlyPrecipIn,Conditions,Clouds,dailyrainin,SolarRadiationWatts/m^2,SoftwareType,DateUTC
2013-03-11 00:03:00,67.0,65.0,-100.00,SSW,195,4.0,8.0,92,0.00,,,0.00,0.000000,,2013-03-11 05:03:00,
2013-03-11 00:32:00,67.0,65.0,-100.00,SSW,202,3.0,9.0,92,0.00,,,0.00,0.000000,,2013-03-11 05:32:00,
2013-03-11 00:43:00,67.0,65.0,-100.00,SSW,202,3.0,9.0,92,0.00,,,0.00,0.000000,,2013-03-11 05:43:00,
2013-03-11 00:52:00,67.0,65.0,-100.00,SSW,202,3.0,9.0,92,0.00,,,0.00,0.000000,,2013-03-11 05:52:00,
2013-03-11 01:02:00,67.0,65.0,-100.00,SSW,202,3.0,9.0,92,0.00,,,0.00,0.000000,,2013-03-11 06:02:00,
2013-03-11 01:33:00,66.0,63.0,-100.00,SSW,207,4.0,9.0,91,0.00,,,0.00,0.000000,,2013-03-11 06:33:00,
2013-03-11 01:42:00,66.0,63.0,-100.00,SSW,207,4.0,9.0,91,0.00,,,0.00,0.000000,,2013-03-11 06:42:00,
2013-03-11 01:53:00,66.0,63.0,-100.00,SSW,207,4.0,9.0,91,0.00,,,0.00,0.000000,,2013-03-11 06:53:00,
2013-03-11 02:02:00,66.0,63.0,-100.00,SSW,207,4.0,9.0,91,0.00,,,0.00,0.000000,,2013-03-11 07:02:00,
2013-03-11 02:33:00,57.0,54.0,-100.00,NNW,336,5.0,13.0,91,0.00,,,0.00,0.000000,,2013-03-11 07:33:00,
2013-03-11 02:42:00,57.0,54.0,-100.00,NNW,336,5.0,13.0,91,0.00,,,0.00,0.000000,,2013-03-11 07:42:00,
2013-03-11 02:52:00,57.0,54.0,-100.00,NNW,336,5.0,13.0,91,0.00,,,0.00,0.000000,,2013-03-11 07:52:00,
2013-03-11 03:02:00,57.0,54.0,-100.00,NNW,336,5.0,13.0,91,0.00,,,0.00,0.000000,,2013-03-11 08:02:00,
2013-03-11 03:33:00,54.0,53.0,-100.00,North,5,3.0,12.0,96,0.05,,,0.05,0.000000,,2013-03-11 08:33:00,
2013-03-11 03:42:00,54.0,53.0,-100.00,North,5,3.0,12.0,96,0.05,,,0.05,0.000000,,2013-03-11 08:42:00,
2013-03-11 03:52:00,54.0,53.0,-100.00,North,5,3.0,12.0,96,0.05,,,0.05,0.000000,,2013-03-11 08:52:00,
2013-03-11 04:02:00,54.0,53.0,-100.00,North,5,3.0,12.0,96,0.05,,,0.05,0.000000,,2013-03-11 09:02:00,
2013-03-11 04:32:00,52.0,51.0,-100.00,NNW,331,5.0,12.0,96,0.01,,,0.06,0.000000,,2013-03-11 09:32:00,
2013-03-11 04:42:00,52.0,51.0,-100.00,NNW,331,5.0,12.0,96,0.01,,,0.06,0.000000,,2013-03-11 09:42:00,
2013-03-11 04:52:00,52.0,51.0,-100.00,NNW,331,5.0,12.0,96,0.01,,,0.06,0.000000,,2013-03-11 09:52:00,
2013-03-11 05:02:00,52.0,51.0,-100.00,NNW,331,5.0,12.0,96,0.01,,,0.06,0.000000,,2013-03-11 10:02:00,
2013-03-11 05:33:00,52.0,51.0,-100.00,NNW,335,4.0,12.0,97,0.17,,,0.23,0.000000,,2013-03-11 10:33:00,
2013-03-11 05:42:00,52.0,51.0,-100.00,NNW,335,4.0,12.0,97,0.17,,,0.23,0.000000,,2013-03-11 10:42:00,
2013-03-11 05:52:00,52.0,51.0,-100.00,NNW,335,4.0,12.0,97,0.17,,,0.23,0.000000,,2013-03-11 10:52:00,
2013-03-11 06:02:00,52.0,51.0,-100.00,NNW,335,4.0,12.0,97,0.17,,,0.23,0.000000,,2013-03-11 11:02:00,
2013-03-11 06:33:00,47.0,46.0,-100.00,NNW,331,4.0,15.0,97,0.27,,,-99.99,0.000000,,2013-03-11 11:33:00,
2013-03-11 06:43:00,47.0,46.0,-100.00,NNW,331,4.0,15.0,97,0.27,,,-99.99,0.000000,,2013-03-11 11:43:00,
2013-03-11 06:53:00,47.0,46.0,-100.00,NNW,331,4.0,15.0,97,0.27,,,-99.99,0.000000,,2013-03-11 11:53:00,
2013-03-11 07:02:00,47.0,46.0,-100.00,NNW,331,4.0,15.0,97,0.27,,,-99.99,0.000000,,2013-03-11 12:02:00,
2013-03-11 07:33:00,45.0,44.0,-100.00,NNW,328,5.0,13.0,97,0.10,,,-99.99,0.000000,,2013-03-11 12:33:00,
2013-03-11 07:43:00,45.0,44.0,-100.00,NNW,328,5.0,13.0,97,0.10,,,-99.99,0.000000,,2013-03-11 12:43:00,
2013-03-11 07:53:00,45.0,44.0,-100.00,NNW,328,5.0,13.0,97,0.10,,,-99.99,0.000000,,2013-03-11 12:53:00,
2013-03-11 08:02:00,45.0,44.0,-100.00,NNW,328,5.0,13.0,97,0.10,,,-99.99,0.000000,,2013-03-11 13:02:00,
2013-03-11 08:33:00,44.0,43.0,-100.00,North,350,3.0,10.0,98,0.20,,,0.80,3.000000,,2013-03-11 13:33:00,
2013-03-11 08:43:00,44.0,43.0,-100.00,North,350,3.0,10.0,98,0.20,,,0.80,3.000000,,2013-03-11 13:43:00,
2013-03-11 08:53:00,44.0,43.0,-100.00,North,350,3.0,10.0,98,0.20,,,0.80,3.000000,,2013-03-11 13:53:00,
2013-03-11 09:02:00,44.0,43.0,-100.00,North,350,3.0,10.0,98,0.20,,,0.80,3.000000,,2013-03-11 14:02:00,
2013-03-11 09:33:00,44.0,43.0,-100.00,North,356,3.0,6.0,98,0.13,,,0.93,12.000000,,2013-03-11 14:33:00,
2013-03-11 09:43:00,44.0,43.0,-100.00,North,356,3.0,6.0,98,0.13,,,0.93,12.000000,,2013-03-11 14:43:00,
2013-03-11 09:53:00,44.0,43.0,-100.00,North,356,3.0,6.0,98,0.13,,,0.93,12.000000,,2013-03-11 14:53:00,
2013-03-11 10:02:00,44.0,43.0,-100.00,North,356,3.0,6.0,98,0.13,,,0.93,12.000000,,2013-03-11 15:02:00,
2013-03-11 10:33:00,43.0,42.0,-100.00,NNW,341,3.0,8.0,98,0.17,,,1.10,20.000000,,2013-03-11 15:33:00,
2013-03-11 10:43:00,43.0,42.0,-100.00,NNW,341,3.0,8.0,98,0.17,,,1.10,20.000000,,2013-03-11 15:43:00,
2013-03-11 10:53:00,43.0,42.0,-100.00,NNW,341,3.0,8.0,98,0.17,,,1.10,20.000000,,2013-03-11 15:53:00,
2013-03-11 11:02:00,43.0,42.0,-100.00,NNW,341,3.0,8.0,98,0.17,,,1.10,20.000000,,2013-03-11 16:02:00,
2013-03-11 11:32:00,43.0,42.0,-100.00,NNW,343,3.0,6.0,97,0.08,,,1.18,49.000000,,2013-03-11 16:32:00,
2013-03-11 11:43:00,43.0,42.0,-100.00,NNW,343,3.0,6.0,97,0.08,,,1.18,49.000000,,2013-03-11 16:43:00,
2013-03-11 11:52:00,43.0,42.0,-100.00,NNW,343,3.0,6.0,97,0.08,,,1.18,49.000000,,2013-03-11 16:52:00,
2013-03-11 12:02:00,43.0,42.0,-100.00,NNW,343,3.0,6.0,97,0.08,,,1.18,49.000000,,2013-03-11 17:02:00,
2013-03-11 12:38:00,45.0,42.0,-100.00,NNW,335,3.0,9.0,90,0.01,,,-99.99,133.000000,,2013-03-11 17:38:00,
2013-03-11 12:53:00,45.0,42.0,-100.00,NNW,335,3.0,9.0,90,0.01,,,-99.99,133.000000,,2013-03-11 17:53:00,
2013-03-11 13:02:00,45.0,42.0,-100.00,NNW,335,3.0,9.0,90,0.01,,,-99.99,133.000000,,2013-03-11 18:02:00,
2013-03-11 13:33:00,50.0,45.0,-100.00,WNW,296,3.0,12.0,83,0.00,,,-99.99,343.000000,,2013-03-11 18:33:00,
2013-03-11 13:43:00,50.0,45.0,-100.00,WNW,296,3.0,12.0,83,0.00,,,-99.99,343.000000,,2013-03-11 18:43:00,
2013-03-11 13:53:00,50.0,45.0,-100.00,WNW,296,3.0,12.0,83,0.00,,,-99.99,343.000000,,2013-03-11 18:53:00,
2013-03-11 14:02:00,50.0,45.0,-100.00,WNW,296,3.0,12.0,83,0.00,,,-99.99,343.000000,,2013-03-11 19:02:00,
2013-03-11 14:33:00,55.0,44.0,-100.00,NW,322,5.0,11.0,66,0.00,,,1.19,657.000000,,2013-03-11 19:33:00,
2013-03-11 14:43:00,55.0,44.0,-100.00,NW,322,5.0,11.0,66,0.00,,,1.19,657.000000,,2013-03-11 19:43:00,
2013-03-11 14:53:00,55.0,44.0,-100.00,NW,322,5.0,11.0,66,0.00,,,1.19,657.000000,,2013-03-11 19:53:00,
2013-03-11 15:02:00,55.0,44.0,-100.00,NW,322,5.0,11.0,66,0.00,,,1.19,657.000000,,2013-03-11 20:02:00,
2013-03-11 15:33:00,59.0,42.0,-100.00,NNW,345,5.0,14.0,54,0.00,,,1.19,643.000000,,2013-03-11 20:33:00,
2013-03-11 15:44:00,59.0,42.0,-100.00,NNW,345,5.0,14.0,54,0.00,,,1.19,643.000000,,2013-03-11 20:44:00,
2013-03-11 15:53:00,59.0,42.0,-100.00,NNW,345,5.0,14.0,54,0.00,,,1.19,643.000000,,2013-03-11 20:53:00,
2013-03-11 16:03:00,59.0,42.0,-100.00,NNW,345,5.0,14.0,54,0.00,,,1.19,643.000000,,2013-03-11 21:03:00,
2013-03-11 16:33:00,61.0,40.0,-100.00,NNW,337,5.0,15.0,46,0.00,,,1.19,585.000000,,2013-03-11 21:33:00,
2013-03-11 16:44:00,61.0,40.0,-100.00,NNW,337,5.0,15.0,46,0.00,,,1.19,585.000000,,2013-03-11 21:44:00,
2013-03-11 16:53:00,61.0,40.0,-100.00,NNW,337,5.0,15.0,46,0.00,,,1.19,585.000000,,2013-03-11 21:53:00,
2013-03-11 17:02:00,61.0,40.0,-100.00,NNW,337,5.0,15.0,46,0.00,,,1.19,585.000000,,2013-03-11 22:02:00,
2013-03-11 17:33:00,61.0,39.0,-100.00,NNW,335,5.0,12.0,44,0.00,,,1.19,432.000000,,2013-03-11 22:33:00,
2013-03-11 17:43:00,61.0,39.0,-100.00,NNW,335,5.0,12.0,44,0.00,,,1.19,432.000000,,2013-03-11 22:43:00,
2013-03-11 17:53:00,61.0,39.0,-100.00,NNW,335,5.0,12.0,44,0.00,,,1.19,432.000000,,2013-03-11 22:53:00,
2013-03-11 18:03:00,61.0,39.0,-100.00,NNW,335,5.0,12.0,44,0.00,,,1.19,432.000000,,2013-03-11 23:03:00,
2013-03-11 18:33:00,56.0,36.0,-100.00,North,353,5.0,13.0,46,0.00,,,1.19,191.000000,,2013-03-11 23:33:00,
2013-03-11 18:43:00,56.0,36.0,-100.00,North,353,5.0,13.0,46,0.00,,,1.19,191.000000,,2013-03-11 23:43:00,
2013-03-11 18:53:00,56.0,36.0,-100.00,North,353,5.0,13.0,46,0.00,,,1.19,191.000000,,2013-03-11 23:53:00,
2013-03-11 19:02:00,56.0,36.0,-100.00,North,353,5.0,13.0,46,0.00,,,1.19,191.000000,,2013-03-12 00:02:00,
2013-03-11 19:33:00,52.0,35.0,-100.00,NNW,332,3.0,9.0,52,0.00,,,1.19,13.000000,,2013-03-12 00:33:00,
2013-03-11 19:43:00,52.0,35.0,-100.00,NNW,332,3.0,9.0,52,0.00,,,1.19,13.000000,,2013-03-12 00:43:00,
2013-03-11 19:53:00,52.0,35.0,-100.00,NNW,332,3.0,9.0,52,0.00,,,1.19,13.000000,,2013-03-12 00:53:00,
2013-03-11 20:02:00,52.0,35.0,-100.00,NNW,332,3.0,9.0,52,0.00,,,1.19,13.000000,,2013-03-12 01:02:00,
2013-03-11 20:33:00,48.0,36.0,-100.00,NW,323,2.0,9.0,62,0.00,,,1.19,1.000000,,2013-03-12 01:33:00,
2013-03-11 20:42:00,48.0,36.0,-100.00,NW,323,2.0,9.0,62,0.00,,,1.19,1.000000,,2013-03-12 01:42:00,
2013-03-11 20:52:00,48.0,36.0,-100.00,NW,323,2.0,9.0,62,0.00,,,1.19,1.000000,,2013-03-12 01:52:00,
2013-03-11 21:02:00,48.0,36.0,-100.00,NW,323,2.0,9.0,62,0.00,,,1.19,1.000000,,2013-03-12 02:02:00,
2013-03-11 21:32:00,47.0,35.0,-100.00,NNW,342,3.0,9.0,63,0.00,,,1.19,0.000000,,2013-03-12 02:32:00,
2013-03-11 21:43:00,47.0,35.0,-100.00,NNW,342,3.0,9.0,63,0.00,,,1.19,0.000000,,2013-03-12 02:43:00,
2013-03-11 21:52:00,47.0,35.0,-100.00,NNW,342,3.0,9.0,63,0.00,,,1.19,0.000000,,2013-03-12 02:52:00,
2013-03-11 22:02:00,47.0,35.0,-100.00,NNW,342,3.0,9.0,63,0.00,,,1.19,0.000000,,2013-03-12 03:02:00,
2013-03-11 22:32:00,46.0,36.0,-100.00,NNW,339,3.0,11.0,68,0.00,,,1.19,0.000000,,2013-03-12 03:32:00,
2013-03-11 22:42:00,46.0,36.0,-100.00,NNW,339,3.0,11.0,68,0.00,,,1.19,0.000000,,2013-03-12 03:42:00,
2013-03-11 22:53:00,46.0,36.0,-100.00,NNW,339,3.0,11.0,68,0.00,,,1.19,0.000000,,2013-03-12 03:53:00,
2013-03-11 23:02:00,46.0,36.0,-100.00,NNW,339,3.0,11.0,68,0.00,,,1.19,0.000000,,2013-03-12 04:02:00,
2013-03-11 23:32:00,44.0,36.0,-100.00,NNW,328,2.0,7.0,74,0.00,,,1.19,0.000000,,2013-03-12 04:32:00,
2013-03-11 23:43:00,44.0,36.0,-100.00,NNW,328,2.0,7.0,74,0.00,,,1.19,0.000000,,2013-03-12 04:43:00,
2013-03-11 23:52:00,44.0,36.0,-100.00,NNW,328,2.0,7.0,74,0.00,,,1.19,0.000000,,2013-03-12 04:52:00,